sensor_id;sensor_type;location;lat;lon;timestamp;P1;durP1;ratioP1;P2;durP2;ratioP2
67721;SDS011;58309;45.292;11.820;2023-02-16T00:01:12;274.25;;;99.22;;
67721;SDS011;58309;45.292;11.820;2023-02-16T00:03:40;282.40;;;99.90;;
67721;SDS011;58309;45.292;11.820;2023-02-16T00:06:06;284.08;;;102.78;;
67721;SDS011;58309;45.292;11.820;2023-02-16T00:08:31;287.27;;;99.07;;
67721;SDS011;58309;45.292;11.820;2023-02-16T00:10:57;273.98;;;99.10;;
67721;SDS011;58309;45.292;11.820;2023-02-16T00:13:41;270.75;;;95.93;;
67721;SDS011;58309;45.292;11.820;2023-02-16T00:16:18;295.05;;;103.28;;
67721;SDS011;58309;45.292;11.820;2023-02-16T00:18:45;285.00;;;102.72;;
67721;SDS011;58309;45.292;11.820;2023-02-16T00:21:11;299.50;;;108.88;;
67721;SDS011;58309;45.292;11.820;2023-02-16T00:23:37;290.88;;;105.63;;
67721;SDS011;58309;45.292;11.820;2023-02-16T00:26:03;299.00;;;106.55;;
67721;SDS011;58309;45.292;11.820;2023-02-16T00:28:30;305.50;;;105.50;;
67721;SDS011;58309;45.292;11.820;2023-02-16T00:30:56;284.65;;;99.78;;
67721;SDS011;58309;45.292;11.820;2023-02-16T00:33:21;244.38;;;90.60;;
67721;SDS011;58309;45.292;11.820;2023-02-16T00:35:47;250.55;;;92.85;;
67721;SDS011;58309;45.292;11.820;2023-02-16T00:38:13;250.35;;;91.13;;
67721;SDS011;58309;45.292;11.820;2023-02-16T00:40:39;251.40;;;92.32;;
67721;SDS011;58309;45.292;11.820;2023-02-16T00:43:05;224.75;;;86.07;;
67721;SDS011;58309;45.292;11.820;2023-02-16T00:45:36;228.07;;;86.65;;
67721;SDS011;58309;45.292;11.820;2023-02-16T00:48:02;225.75;;;84.22;;
67721;SDS011;58309;45.292;11.820;2023-02-16T00:50:29;190.88;;;79.82;;
67721;SDS011;58309;45.292;11.820;2023-02-16T00:52:59;202.48;;;80.65;;
67721;SDS011;58309;45.292;11.820;2023-02-16T00:55:28;238.93;;;86.75;;
67721;SDS011;58309;45.292;11.820;2023-02-16T01:00:50;257.63;;;92.75;;
67721;SDS011;58309;45.292;11.820;2023-02-16T01:03:19;263.42;;;92.63;;
67721;SDS011;58309;45.292;11.820;2023-02-16T01:05:48;269.92;;;93.80;;
67721;SDS011;58309;45.292;11.820;2023-02-16T01:08:14;255.90;;;88.88;;
67721;SDS011;58309;45.292;11.820;2023-02-16T01:11:00;241.10;;;88.93;;
67721;SDS011;58309;45.292;11.820;2023-02-16T01:13:46;251.75;;;88.10;;
67721;SDS011;58309;45.292;11.820;2023-02-16T01:18:44;304.85;;;102.72;;
67721;SDS011;58309;45.292;11.820;2023-02-16T01:21:10;291.08;;;101.75;;
67721;SDS011;58309;45.292;11.820;2023-02-16T01:23:36;293.58;;;99.90;;
67721;SDS011;58309;45.292;11.820;2023-02-16T01:26:03;277.25;;;96.82;;
67721;SDS011;58309;45.292;11.820;2023-02-16T01:28:32;275.55;;;94.15;;
67721;SDS011;58309;45.292;11.820;2023-02-16T01:30:58;304.45;;;99.65;;
67721;SDS011;58309;45.292;11.820;2023-02-16T01:33:24;278.17;;;94.75;;
67721;SDS011;58309;45.292;11.820;2023-02-16T01:35:49;287.48;;;99.10;;
67721;SDS011;58309;45.292;11.820;2023-02-16T01:38:17;283.20;;;96.63;;
67721;SDS011;58309;45.292;11.820;2023-02-16T01:40:52;298.60;;;99.85;;
67721;SDS011;58309;45.292;11.820;2023-02-16T01:43:25;253.73;;;91.90;;
67721;SDS011;58309;45.292;11.820;2023-02-16T01:46:02;268.73;;;96.63;;
67721;SDS011;58309;45.292;11.820;2023-02-16T01:48:35;319.08;;;100.85;;
67721;SDS011;58309;45.292;11.820;2023-02-16T01:51:05;294.33;;;99.43;;
67721;SDS011;58309;45.292;11.820;2023-02-16T01:53:51;320.02;;;104.75;;
67721;SDS011;58309;45.292;11.820;2023-02-16T02:02:04;414.15;;;123.22;;
67721;SDS011;58309;45.292;11.820;2023-02-16T02:04:49;420.48;;;124.85;;
67721;SDS011;58309;45.292;11.820;2023-02-16T02:16:02;442.55;;;124.90;;
67721;SDS011;58309;45.292;11.820;2023-02-16T02:18:29;451.35;;;128.77;;
67721;SDS011;58309;45.292;11.820;2023-02-16T02:33:02;465.02;;;128.57;;
67721;SDS011;58309;45.292;11.820;2023-02-16T02:38:15;461.73;;;128.50;;
67721;SDS011;58309;45.292;11.820;2023-02-16T02:43:44;472.60;;;132.55;;
67721;SDS011;58309;45.292;11.820;2023-02-16T02:46:13;497.48;;;141.05;;
67721;SDS011;58309;45.292;11.820;2023-02-16T02:48:44;487.92;;;137.57;;
67721;SDS011;58309;45.292;11.820;2023-02-16T02:51:11;495.85;;;138.38;;
67721;SDS011;58309;45.292;11.820;2023-02-16T02:53:57;526.10;;;142.30;;
67721;SDS011;58309;45.292;11.820;2023-02-16T03:08:30;518.10;;;143.25;;
67721;SDS011;58309;45.292;11.820;2023-02-16T03:11:03;535.65;;;150.65;;
67721;SDS011;58309;45.292;11.820;2023-02-16T03:13:56;536.45;;;154.05;;
67721;SDS011;58309;45.292;11.820;2023-02-16T03:16:26;564.85;;;165.10;;
67721;SDS011;58309;45.292;11.820;2023-02-16T03:19:01;581.70;;;183.23;;
67721;SDS011;58309;45.292;11.820;2023-02-16T03:21:47;599.83;;;192.02;;
67721;SDS011;58309;45.292;11.820;2023-02-16T03:24:32;618.28;;;185.90;;
67721;SDS011;58309;45.292;11.820;2023-02-16T03:27:18;624.33;;;188.88;;
67721;SDS011;58309;45.292;11.820;2023-02-16T03:30:07;582.78;;;182.82;;
67721;SDS011;58309;45.292;11.820;2023-02-16T03:32:35;597.63;;;175.27;;
67721;SDS011;58309;45.292;11.820;2023-02-16T03:35:01;580.78;;;174.68;;
67721;SDS011;58309;45.292;11.820;2023-02-16T03:37:26;562.00;;;169.35;;
67721;SDS011;58309;45.292;11.820;2023-02-16T03:39:52;572.03;;;172.13;;
67721;SDS011;58309;45.292;11.820;2023-02-16T03:42:36;557.33;;;175.93;;
67721;SDS011;58309;45.292;11.820;2023-02-16T03:45:02;573.67;;;172.50;;
67721;SDS011;58309;45.292;11.820;2023-02-16T03:47:28;562.97;;;167.73;;
67721;SDS011;58309;45.292;11.820;2023-02-16T03:49:53;553.10;;;167.25;;
67721;SDS011;58309;45.292;11.820;2023-02-16T03:52:19;528.85;;;162.70;;
67721;SDS011;58309;45.292;11.820;2023-02-16T03:54:44;538.17;;;159.88;;
67721;SDS011;58309;45.292;11.820;2023-02-16T03:57:10;549.58;;;164.65;;
67721;SDS011;58309;45.292;11.820;2023-02-16T03:59:35;547.13;;;165.25;;
67721;SDS011;58309;45.292;11.820;2023-02-16T04:02:01;546.92;;;162.25;;
67721;SDS011;58309;45.292;11.820;2023-02-16T04:04:27;545.25;;;162.93;;
67721;SDS011;58309;45.292;11.820;2023-02-16T04:06:52;536.92;;;158.43;;
67721;SDS011;58309;45.292;11.820;2023-02-16T04:09:18;557.35;;;166.88;;
67721;SDS011;58309;45.292;11.820;2023-02-16T04:11:43;545.15;;;168.07;;
67721;SDS011;58309;45.292;11.820;2023-02-16T04:14:27;556.17;;;164.70;;
67721;SDS011;58309;45.292;11.820;2023-02-16T04:16:53;529.88;;;159.57;;
67721;SDS011;58309;45.292;11.820;2023-02-16T04:19:20;537.00;;;159.00;;
67721;SDS011;58309;45.292;11.820;2023-02-16T04:21:47;519.67;;;159.32;;
67721;SDS011;58309;45.292;11.820;2023-02-16T04:24:13;539.75;;;161.90;;
67721;SDS011;58309;45.292;11.820;2023-02-16T04:26:38;507.17;;;156.88;;
67721;SDS011;58309;45.292;11.820;2023-02-16T04:29:04;521.58;;;160.40;;
67721;SDS011;58309;45.292;11.820;2023-02-16T04:31:29;525.03;;;152.63;;
67721;SDS011;58309;45.292;11.820;2023-02-16T04:33:55;527.22;;;152.85;;
67721;SDS011;58309;45.292;11.820;2023-02-16T04:36:20;484.17;;;150.90;;
67721;SDS011;58309;45.292;11.820;2023-02-16T04:38:46;513.80;;;150.48;;
67721;SDS011;58309;45.292;11.820;2023-02-16T04:41:12;518.45;;;151.43;;
67721;SDS011;58309;45.292;11.820;2023-02-16T04:43:37;516.33;;;151.20;;
67721;SDS011;58309;45.292;11.820;2023-02-16T04:46:03;511.77;;;146.10;;
67721;SDS011;58309;45.292;11.820;2023-02-16T04:48:28;507.30;;;152.38;;
67721;SDS011;58309;45.292;11.820;2023-02-16T04:50:54;512.22;;;148.73;;
67721;SDS011;58309;45.292;11.820;2023-02-16T04:53:19;508.27;;;148.02;;
67721;SDS011;58309;45.292;11.820;2023-02-16T04:55:46;522.45;;;154.60;;
67721;SDS011;58309;45.292;11.820;2023-02-16T04:58:12;519.25;;;154.57;;
67721;SDS011;58309;45.292;11.820;2023-02-16T05:00:38;527.85;;;158.20;;
67721;SDS011;58309;45.292;11.820;2023-02-16T05:03:04;530.60;;;152.90;;
67721;SDS011;58309;45.292;11.820;2023-02-16T05:05:29;525.80;;;158.40;;
67721;SDS011;58309;45.292;11.820;2023-02-16T05:07:55;553.17;;;162.27;;
67721;SDS011;58309;45.292;11.820;2023-02-16T05:10:21;529.65;;;154.15;;
67721;SDS011;58309;45.292;11.820;2023-02-16T05:12:46;535.95;;;153.82;;
67721;SDS011;58309;45.292;11.820;2023-02-16T05:15:30;544.95;;;156.98;;
67721;SDS011;58309;45.292;11.820;2023-02-16T05:17:56;552.20;;;158.77;;
67721;SDS011;58309;45.292;11.820;2023-02-16T05:20:21;545.08;;;158.95;;
67721;SDS011;58309;45.292;11.820;2023-02-16T05:23:07;548.33;;;155.73;;
67721;SDS011;58309;45.292;11.820;2023-02-16T05:25:32;557.00;;;159.80;;
67721;SDS011;58309;45.292;11.820;2023-02-16T05:27:58;568.05;;;165.55;;
67721;SDS011;58309;45.292;11.820;2023-02-16T05:30:23;564.35;;;158.75;;
67721;SDS011;58309;45.292;11.820;2023-02-16T05:32:49;549.65;;;158.38;;
67721;SDS011;58309;45.292;11.820;2023-02-16T05:35:14;559.08;;;156.07;;
67721;SDS011;58309;45.292;11.820;2023-02-16T05:37:40;572.15;;;157.30;;
67721;SDS011;58309;45.292;11.820;2023-02-16T05:40:06;586.28;;;158.75;;
67721;SDS011;58309;45.292;11.820;2023-02-16T05:42:32;607.40;;;159.35;;
67721;SDS011;58309;45.292;11.820;2023-02-16T05:44:57;626.42;;;168.05;;
67721;SDS011;58309;45.292;11.820;2023-02-16T05:47:23;644.92;;;163.40;;
67721;SDS011;58309;45.292;11.820;2023-02-16T05:49:48;635.55;;;165.85;;
67721;SDS011;58309;45.292;11.820;2023-02-16T05:52:14;643.45;;;167.40;;
67721;SDS011;58309;45.292;11.820;2023-02-16T05:54:39;648.70;;;171.05;;
67721;SDS011;58309;45.292;11.820;2023-02-16T05:57:05;639.53;;;164.85;;
67721;SDS011;58309;45.292;11.820;2023-02-16T05:59:31;633.95;;;163.50;;
67721;SDS011;58309;45.292;11.820;2023-02-16T06:01:56;635.83;;;164.75;;
67721;SDS011;58309;45.292;11.820;2023-02-16T06:04:22;676.75;;;174.98;;
67721;SDS011;58309;45.292;11.820;2023-02-16T06:06:47;634.75;;;168.80;;
67721;SDS011;58309;45.292;11.820;2023-02-16T06:09:13;651.13;;;168.82;;
67721;SDS011;58309;45.292;11.820;2023-02-16T06:11:39;631.60;;;164.50;;
67721;SDS011;58309;45.292;11.820;2023-02-16T06:16:35;673.58;;;174.45;;
67721;SDS011;58309;45.292;11.820;2023-02-16T06:19:03;645.45;;;166.80;;
67721;SDS011;58309;45.292;11.820;2023-02-16T06:21:29;671.80;;;177.55;;
67721;SDS011;58309;45.292;11.820;2023-02-16T06:23:54;668.22;;;175.93;;
67721;SDS011;58309;45.292;11.820;2023-02-16T06:26:20;679.58;;;186.70;;
67721;SDS011;58309;45.292;11.820;2023-02-16T06:28:46;658.35;;;176.55;;
67721;SDS011;58309;45.292;11.820;2023-02-16T06:31:12;648.25;;;165.45;;
67721;SDS011;58309;45.292;11.820;2023-02-16T06:33:38;647.35;;;167.90;;
67721;SDS011;58309;45.292;11.820;2023-02-16T06:36:03;667.80;;;175.45;;
67721;SDS011;58309;45.292;11.820;2023-02-16T06:38:29;662.45;;;177.60;;
67721;SDS011;58309;45.292;11.820;2023-02-16T06:40:55;639.80;;;166.40;;
67721;SDS011;58309;45.292;11.820;2023-02-16T06:43:20;662.95;;;176.05;;
67721;SDS011;58309;45.292;11.820;2023-02-16T06:45:46;646.20;;;175.02;;
67721;SDS011;58309;45.292;11.820;2023-02-16T06:48:13;611.67;;;157.90;;
67721;SDS011;58309;45.292;11.820;2023-02-16T06:50:38;636.47;;;170.35;;
67721;SDS011;58309;45.292;11.820;2023-02-16T06:53:04;629.40;;;157.50;;
67721;SDS011;58309;45.292;11.820;2023-02-16T06:55:30;619.75;;;163.80;;
67721;SDS011;58309;45.292;11.820;2023-02-16T06:58:00;619.10;;;161.38;;
67721;SDS011;58309;45.292;11.820;2023-02-16T07:00:27;606.88;;;155.70;;
67721;SDS011;58309;45.292;11.820;2023-02-16T07:02:53;608.95;;;165.38;;
67721;SDS011;58309;45.292;11.820;2023-02-16T07:05:20;588.90;;;153.07;;
67721;SDS011;58309;45.292;11.820;2023-02-16T07:07:45;594.53;;;167.75;;
67721;SDS011;58309;45.292;11.820;2023-02-16T07:10:11;596.10;;;167.60;;
67721;SDS011;58309;45.292;11.820;2023-02-16T07:12:37;562.63;;;153.43;;
67721;SDS011;58309;45.292;11.820;2023-02-16T07:15:02;555.22;;;157.13;;
67721;SDS011;58309;45.292;11.820;2023-02-16T07:17:28;523.42;;;147.45;;
67721;SDS011;58309;45.292;11.820;2023-02-16T07:19:54;506.02;;;146.30;;
67721;SDS011;58309;45.292;11.820;2023-02-16T07:22:19;471.05;;;143.32;;
67721;SDS011;58309;45.292;11.820;2023-02-16T07:24:45;440.27;;;136.63;;
67721;SDS011;58309;45.292;11.820;2023-02-16T07:27:10;407.75;;;126.78;;
67721;SDS011;58309;45.292;11.820;2023-02-16T07:29:36;356.50;;;123.97;;
67721;SDS011;58309;45.292;11.820;2023-02-16T07:32:02;353.17;;;119.78;;
67721;SDS011;58309;45.292;11.820;2023-02-16T07:34:28;342.52;;;112.88;;
67721;SDS011;58309;45.292;11.820;2023-02-16T07:36:53;331.70;;;111.20;;
67721;SDS011;58309;45.292;11.820;2023-02-16T07:39:19;333.65;;;114.63;;
67721;SDS011;58309;45.292;11.820;2023-02-16T07:41:44;331.30;;;115.68;;
67721;SDS011;58309;45.292;11.820;2023-02-16T07:44:10;348.25;;;124.78;;
67721;SDS011;58309;45.292;11.820;2023-02-16T07:46:36;364.50;;;125.68;;
67721;SDS011;58309;45.292;11.820;2023-02-16T07:49:01;370.23;;;128.80;;
67721;SDS011;58309;45.292;11.820;2023-02-16T07:51:28;350.92;;;124.60;;
67721;SDS011;58309;45.292;11.820;2023-02-16T07:53:55;328.30;;;122.07;;
67721;SDS011;58309;45.292;11.820;2023-02-16T07:56:29;269.92;;;110.15;;
67721;SDS011;58309;45.292;11.820;2023-02-16T07:58:57;230.25;;;101.63;;
67721;SDS011;58309;45.292;11.820;2023-02-16T08:01:23;190.52;;;88.90;;
67721;SDS011;58309;45.292;11.820;2023-02-16T08:03:50;181.75;;;85.13;;
67721;SDS011;58309;45.292;11.820;2023-02-16T08:06:16;172.52;;;78.75;;
67721;SDS011;58309;45.292;11.820;2023-02-16T08:08:42;155.05;;;76.63;;
67721;SDS011;58309;45.292;11.820;2023-02-16T08:11:15;155.75;;;73.13;;
67721;SDS011;58309;45.292;11.820;2023-02-16T08:13:45;150.10;;;73.40;;
67721;SDS011;58309;45.292;11.820;2023-02-16T08:16:12;147.02;;;73.07;;
67721;SDS011;58309;45.292;11.820;2023-02-16T08:18:40;144.88;;;71.38;;
67721;SDS011;58309;45.292;11.820;2023-02-16T08:21:06;151.25;;;72.22;;
67721;SDS011;58309;45.292;11.820;2023-02-16T08:23:39;144.82;;;71.28;;
67721;SDS011;58309;45.292;11.820;2023-02-16T08:26:12;138.95;;;70.30;;
67721;SDS011;58309;45.292;11.820;2023-02-16T08:28:39;136.20;;;67.90;;
67721;SDS011;58309;45.292;11.820;2023-02-16T08:31:13;132.27;;;68.30;;
67721;SDS011;58309;45.292;11.820;2023-02-16T08:33:41;129.40;;;67.18;;
67721;SDS011;58309;45.292;11.820;2023-02-16T08:36:11;129.50;;;68.93;;
67721;SDS011;58309;45.292;11.820;2023-02-16T08:38:41;128.13;;;62.80;;
67721;SDS011;58309;45.292;11.820;2023-02-16T08:41:07;136.68;;;63.42;;
67721;SDS011;58309;45.292;11.820;2023-02-16T08:43:33;117.20;;;62.80;;
67721;SDS011;58309;45.292;11.820;2023-02-16T08:45:59;118.53;;;61.78;;
67721;SDS011;58309;45.292;11.820;2023-02-16T08:48:24;114.53;;;60.67;;
67721;SDS011;58309;45.292;11.820;2023-02-16T08:50:53;107.75;;;57.08;;
67721;SDS011;58309;45.292;11.820;2023-02-16T08:53:21;100.75;;;55.72;;
67721;SDS011;58309;45.292;11.820;2023-02-16T08:55:52;94.50;;;54.55;;
67721;SDS011;58309;45.292;11.820;2023-02-16T08:58:18;98.85;;;53.72;;
67721;SDS011;58309;45.292;11.820;2023-02-16T09:00:44;108.25;;;58.67;;
67721;SDS011;58309;45.292;11.820;2023-02-16T09:03:10;103.78;;;59.63;;
67721;SDS011;58309;45.292;11.820;2023-02-16T09:05:35;118.70;;;61.13;;
67721;SDS011;58309;45.292;11.820;2023-02-16T09:08:01;118.00;;;63.08;;
67721;SDS011;58309;45.292;11.820;2023-02-16T09:10:27;131.73;;;66.93;;
67721;SDS011;58309;45.292;11.820;2023-02-16T09:12:53;134.98;;;67.45;;
67721;SDS011;58309;45.292;11.820;2023-02-16T09:15:19;140.02;;;71.38;;
67721;SDS011;58309;45.292;11.820;2023-02-16T09:17:45;147.90;;;75.25;;
67721;SDS011;58309;45.292;11.820;2023-02-16T09:20:11;146.40;;;71.50;;
67721;SDS011;58309;45.292;11.820;2023-02-16T09:22:37;158.32;;;74.03;;
67721;SDS011;58309;45.292;11.820;2023-02-16T09:25:03;146.93;;;72.05;;
67721;SDS011;58309;45.292;11.820;2023-02-16T09:27:31;148.18;;;72.20;;
67721;SDS011;58309;45.292;11.820;2023-02-16T09:29:58;151.13;;;73.82;;
67721;SDS011;58309;45.292;11.820;2023-02-16T09:32:26;155.43;;;73.80;;
67721;SDS011;58309;45.292;11.820;2023-02-16T09:34:53;160.95;;;73.05;;
67721;SDS011;58309;45.292;11.820;2023-02-16T09:37:19;164.25;;;72.80;;
67721;SDS011;58309;45.292;11.820;2023-02-16T09:39:44;155.13;;;72.85;;
67721;SDS011;58309;45.292;11.820;2023-02-16T09:45:04;147.13;;;73.13;;
67721;SDS011;58309;45.292;11.820;2023-02-16T09:47:38;143.60;;;70.80;;
67721;SDS011;58309;45.292;11.820;2023-02-16T09:50:18;146.90;;;70.13;;
67721;SDS011;58309;45.292;11.820;2023-02-16T09:52:49;154.63;;;70.93;;
67721;SDS011;58309;45.292;11.820;2023-02-16T09:55:19;165.95;;;76.18;;
67721;SDS011;58309;45.292;11.820;2023-02-16T09:57:52;154.57;;;73.20;;
67721;SDS011;58309;45.292;11.820;2023-02-16T10:08:33;165.35;;;74.30;;
67721;SDS011;58309;45.292;11.820;2023-02-16T10:14:12;178.55;;;76.65;;
67721;SDS011;58309;45.292;11.820;2023-02-16T10:20:11;207.63;;;78.95;;
67721;SDS011;58309;45.292;11.820;2023-02-16T10:23:21;203.85;;;78.75;;
67721;SDS011;58309;45.292;11.820;2023-02-16T10:25:49;191.48;;;75.65;;
67721;SDS011;58309;45.292;11.820;2023-02-16T10:28:31;182.93;;;72.25;;
67721;SDS011;58309;45.292;11.820;2023-02-16T10:31:19;178.43;;;70.63;;
67721;SDS011;58309;45.292;11.820;2023-02-16T10:47:42;167.95;;;71.47;;
67721;SDS011;58309;45.292;11.820;2023-02-16T10:50:21;160.82;;;67.45;;
67721;SDS011;58309;45.292;11.820;2023-02-16T10:53:05;149.80;;;68.22;;
67721;SDS011;58309;45.292;11.820;2023-02-16T10:55:37;158.82;;;70.85;;
67721;SDS011;58309;45.292;11.820;2023-02-16T10:58:03;157.00;;;67.68;;
67721;SDS011;58309;45.292;11.820;2023-02-16T11:00:41;161.25;;;69.45;;
67721;SDS011;58309;45.292;11.820;2023-02-16T11:03:17;155.40;;;69.60;;
67721;SDS011;58309;45.292;11.820;2023-02-16T11:05:48;151.40;;;64.82;;
67721;SDS011;58309;45.292;11.820;2023-02-16T11:08:13;153.50;;;65.90;;
67721;SDS011;58309;45.292;11.820;2023-02-16T11:10:43;141.25;;;66.75;;
67721;SDS011;58309;45.292;11.820;2023-02-16T11:15:54;136.25;;;64.25;;
67721;SDS011;58309;45.292;11.820;2023-02-16T11:20:56;131.93;;;63.38;;
67721;SDS011;58309;45.292;11.820;2023-02-16T11:23:23;138.40;;;67.50;;
67721;SDS011;58309;45.292;11.820;2023-02-16T11:28:28;125.83;;;64.63;;
67721;SDS011;58309;45.292;11.820;2023-02-16T11:31:04;125.45;;;66.88;;
67721;SDS011;58309;45.292;11.820;2023-02-16T11:33:40;128.60;;;64.07;;
67721;SDS011;58309;45.292;11.820;2023-02-16T11:39:03;129.05;;;67.35;;
67721;SDS011;58309;45.292;11.820;2023-02-16T11:41:43;130.77;;;68.40;;
67721;SDS011;58309;45.292;11.820;2023-02-16T11:46:51;128.98;;;66.95;;
67721;SDS011;58309;45.292;11.820;2023-02-16T11:51:56;135.20;;;69.28;;
67721;SDS011;58309;45.292;11.820;2023-02-16T11:54:22;135.15;;;69.05;;
67721;SDS011;58309;45.292;11.820;2023-02-16T11:57:01;126.40;;;70.82;;
67721;SDS011;58309;45.292;11.820;2023-02-16T11:59:34;125.07;;;65.30;;
67721;SDS011;58309;45.292;11.820;2023-02-16T12:08:17;118.88;;;64.88;;
67721;SDS011;58309;45.292;11.820;2023-02-16T12:14:11;121.72;;;65.00;;
67721;SDS011;58309;45.292;11.820;2023-02-16T12:34:07;117.07;;;59.17;;
67721;SDS011;58309;45.292;11.820;2023-02-16T12:45:05;127.97;;;62.90;;
67721;SDS011;58309;45.292;11.820;2023-02-16T12:47:36;126.95;;;62.78;;
67721;SDS011;58309;45.292;11.820;2023-02-16T12:50:07;129.25;;;64.28;;
67721;SDS011;58309;45.292;11.820;2023-02-16T12:52:54;133.45;;;64.03;;
67721;SDS011;58309;45.292;11.820;2023-02-16T12:55:37;136.90;;;61.70;;
67721;SDS011;58309;45.292;11.820;2023-02-16T13:00:52;136.23;;;61.15;;
67721;SDS011;58309;45.292;11.820;2023-02-16T13:03:24;130.75;;;60.85;;
67721;SDS011;58309;45.292;11.820;2023-02-16T13:06:05;128.65;;;60.95;;
67721;SDS011;58309;45.292;11.820;2023-02-16T13:08:35;127.85;;;59.47;;
67721;SDS011;58309;45.292;11.820;2023-02-16T13:11:39;133.70;;;61.55;;
67721;SDS011;58309;45.292;11.820;2023-02-16T13:14:15;129.30;;;58.53;;
67721;SDS011;58309;45.292;11.820;2023-02-16T13:19:19;133.00;;;61.95;;
67721;SDS011;58309;45.292;11.820;2023-02-16T13:45:48;123.25;;;54.78;;
67721;SDS011;58309;45.292;11.820;2023-02-16T13:51:04;129.52;;;53.95;;
67721;SDS011;58309;45.292;11.820;2023-02-16T13:53:36;124.15;;;53.25;;
67721;SDS011;58309;45.292;11.820;2023-02-16T13:58:46;136.82;;;56.63;;
67721;SDS011;58309;45.292;11.820;2023-02-16T14:03:58;140.10;;;58.03;;
67721;SDS011;58309;45.292;11.820;2023-02-16T14:17:34;141.30;;;56.28;;
67721;SDS011;58309;45.292;11.820;2023-02-16T14:22:51;142.98;;;57.53;;
67721;SDS011;58309;45.292;11.820;2023-02-16T14:30:56;136.45;;;55.28;;
67721;SDS011;58309;45.292;11.820;2023-02-16T14:36:12;141.45;;;56.85;;
67721;SDS011;58309;45.292;11.820;2023-02-16T14:38:46;144.05;;;56.58;;
67721;SDS011;58309;45.292;11.820;2023-02-16T14:41:24;139.25;;;56.65;;
67721;SDS011;58309;45.292;11.820;2023-02-16T15:00:23;163.70;;;60.77;;
67721;SDS011;58309;45.292;11.820;2023-02-16T15:02:58;159.13;;;58.85;;
67721;SDS011;58309;45.292;11.820;2023-02-16T15:05:38;155.38;;;60.47;;
67721;SDS011;58309;45.292;11.820;2023-02-16T15:10:37;153.30;;;58.38;;
67721;SDS011;58309;45.292;11.820;2023-02-16T15:13:03;166.45;;;60.85;;
67721;SDS011;58309;45.292;11.820;2023-02-16T15:15:43;167.05;;;61.60;;
67721;SDS011;58309;45.292;11.820;2023-02-16T15:18:16;160.45;;;58.05;;
67721;SDS011;58309;45.292;11.820;2023-02-16T15:20:44;160.63;;;60.00;;
67721;SDS011;58309;45.292;11.820;2023-02-16T15:23:23;173.73;;;63.00;;
67721;SDS011;58309;45.292;11.820;2023-02-16T15:25:57;171.35;;;61.58;;
67721;SDS011;58309;45.292;11.820;2023-02-16T15:28:26;167.70;;;59.80;;
67721;SDS011;58309;45.292;11.820;2023-02-16T15:30:59;178.68;;;63.15;;
67721;SDS011;58309;45.292;11.820;2023-02-16T15:34:13;181.82;;;63.10;;
67721;SDS011;58309;45.292;11.820;2023-02-16T15:36:26;167.90;;;61.03;;
67721;SDS011;58309;45.292;11.820;2023-02-16T15:39:01;182.93;;;63.65;;
67721;SDS011;58309;45.292;11.820;2023-02-16T15:41:31;186.48;;;65.40;;
67721;SDS011;58309;45.292;11.820;2023-02-16T15:43:58;187.88;;;64.20;;
67721;SDS011;58309;45.292;11.820;2023-02-16T15:46:30;191.95;;;65.68;;
67721;SDS011;58309;45.292;11.820;2023-02-16T15:48:58;202.75;;;67.40;;
67721;SDS011;58309;45.292;11.820;2023-02-16T15:51:38;194.32;;;66.97;;
67721;SDS011;58309;45.292;11.820;2023-02-16T15:54:06;197.93;;;65.75;;
67721;SDS011;58309;45.292;11.820;2023-02-16T15:56:44;196.35;;;69.03;;
67721;SDS011;58309;45.292;11.820;2023-02-16T16:01:56;214.23;;;68.50;;
67721;SDS011;58309;45.292;11.820;2023-02-16T16:06:52;212.57;;;68.57;;
67721;SDS011;58309;45.292;11.820;2023-02-16T16:09:36;210.98;;;68.82;;
67721;SDS011;58309;45.292;11.820;2023-02-16T16:12:05;230.05;;;69.68;;
67721;SDS011;58309;45.292;11.820;2023-02-16T16:14:33;239.80;;;72.22;;
67721;SDS011;58309;45.292;11.820;2023-02-16T16:17:02;246.60;;;74.95;;
67721;SDS011;58309;45.292;11.820;2023-02-16T16:19:35;244.25;;;76.40;;
67721;SDS011;58309;45.292;11.820;2023-02-16T16:22:03;267.25;;;76.78;;
67721;SDS011;58309;45.292;11.820;2023-02-16T16:24:49;267.13;;;78.10;;
67721;SDS011;58309;45.292;11.820;2023-02-16T16:27:25;287.50;;;84.32;;
67721;SDS011;58309;45.292;11.820;2023-02-16T16:30:06;282.23;;;78.88;;
67721;SDS011;58309;45.292;11.820;2023-02-16T16:32:37;303.08;;;81.35;;
67721;SDS011;58309;45.292;11.820;2023-02-16T16:35:17;333.92;;;88.28;;
67721;SDS011;58309;45.292;11.820;2023-02-16T16:37:48;350.65;;;87.97;;
67721;SDS011;58309;45.292;11.820;2023-02-16T16:45:36;385.83;;;98.30;;
67721;SDS011;58309;45.292;11.820;2023-02-16T16:48:46;424.05;;;103.38;;
67721;SDS011;58309;45.292;11.820;2023-02-16T16:56:11;379.70;;;92.35;;
67721;SDS011;58309;45.292;11.820;2023-02-16T16:58:37;394.25;;;91.43;;
67721;SDS011;58309;45.292;11.820;2023-02-16T17:01:03;443.35;;;97.15;;
67721;SDS011;58309;45.292;11.820;2023-02-16T17:03:29;477.38;;;98.28;;
67721;SDS011;58309;45.292;11.820;2023-02-16T17:05:55;466.73;;;95.45;;
67721;SDS011;58309;45.292;11.820;2023-02-16T17:08:21;464.42;;;95.28;;
67721;SDS011;58309;45.292;11.820;2023-02-16T17:10:46;505.15;;;106.82;;
67721;SDS011;58309;45.292;11.820;2023-02-16T17:13:13;508.27;;;101.40;;
67721;SDS011;58309;45.292;11.820;2023-02-16T17:18:12;527.63;;;103.45;;
67721;SDS011;58309;45.292;11.820;2023-02-16T17:20:40;554.85;;;107.25;;
67721;SDS011;58309;45.292;11.820;2023-02-16T17:23:06;664.70;;;114.47;;
67721;SDS011;58309;45.292;11.820;2023-02-16T17:25:32;735.83;;;111.93;;
67721;SDS011;58309;45.292;11.820;2023-02-16T17:27:58;637.30;;;107.90;;
67721;SDS011;58309;45.292;11.820;2023-02-16T17:30:24;954.75;;;120.78;;
67721;SDS011;58309;45.292;11.820;2023-02-16T17:32:49;976.20;;;114.70;;
67721;SDS011;58309;45.292;11.820;2023-02-16T17:35:15;1208.75;;;126.47;;
67721;SDS011;58309;45.292;11.820;2023-02-16T17:37:41;1390.47;;;134.60;;
67721;SDS011;58309;45.292;11.820;2023-02-16T17:40:14;1341.30;;;121.20;;
67721;SDS011;58309;45.292;11.820;2023-02-16T17:42:43;1140.30;;;113.68;;
67721;SDS011;58309;45.292;11.820;2023-02-16T17:45:10;1352.88;;;132.32;;
67721;SDS011;58309;45.292;11.820;2023-02-16T17:47:36;1266.75;;;120.50;;
67721;SDS011;58309;45.292;11.820;2023-02-16T17:50:02;1347.10;;;130.55;;
67721;SDS011;58309;45.292;11.820;2023-02-16T17:52:28;1465.07;;;136.40;;
67721;SDS011;58309;45.292;11.820;2023-02-16T17:54:54;1397.18;;;136.20;;
67721;SDS011;58309;45.292;11.820;2023-02-16T17:57:19;1439.03;;;134.73;;